createdAt,value
2019-02-08T00:02:16.025Z,4.40
2019-02-08T00:04:45.916Z,3.60
2019-02-08T00:07:16.045Z,3.90
2019-02-08T00:09:45.892Z,2.63
2019-02-08T00:12:15.744Z,3.83
2019-02-08T00:14:45.485Z,2.97
2019-02-08T00:17:15.223Z,3.50
2019-02-08T00:19:45.130Z,4.60
2019-02-08T00:22:15.112Z,4.47
2019-02-08T00:24:45.078Z,4.07
2019-02-08T00:27:15.069Z,4.00
2019-02-08T00:29:44.631Z,4.23
2019-02-08T00:32:14.424Z,4.63
2019-02-08T00:34:44.324Z,4.37
2019-02-08T00:37:14.385Z,5.10
2019-02-08T00:39:44.251Z,4.03
2019-02-08T00:42:13.935Z,4.93
2019-02-08T00:44:43.633Z,3.30
2019-02-08T00:47:13.776Z,4.00
2019-02-08T00:49:44.597Z,3.93
2019-02-08T00:52:14.917Z,3.87
2019-02-08T00:54:44.668Z,4.07
2019-02-08T00:57:14.370Z,3.70
2019-02-08T00:59:44.233Z,3.77
2019-02-08T01:02:13.892Z,3.90
2019-02-08T01:04:43.698Z,3.70
2019-02-08T01:07:13.878Z,3.80
2019-02-08T01:09:43.722Z,3.50
2019-02-08T01:12:13.435Z,4.03
2019-02-08T01:14:44.178Z,3.63
2019-02-08T01:17:14.100Z,4.57
2019-02-08T01:19:43.927Z,3.33
2019-02-08T01:22:14.058Z,4.00
2019-02-08T01:24:43.723Z,3.63
2019-02-08T01:27:13.566Z,3.67
2019-02-08T01:29:43.551Z,7.83
2019-02-08T01:32:13.147Z,3.50
2019-02-08T01:34:42.974Z,3.73
2019-02-08T01:37:12.795Z,3.50
2019-02-08T01:39:42.604Z,2.83
2019-02-08T01:42:12.920Z,3.10
2019-02-08T01:44:42.835Z,2.70
2019-02-08T01:47:12.425Z,2.93
2019-02-08T01:49:42.266Z,2.87
2019-02-08T01:52:11.968Z,2.70
2019-02-08T01:54:41.949Z,2.90
2019-02-08T01:57:13.088Z,3.30
2019-02-08T01:59:42.799Z,3.07
2019-02-08T02:02:12.403Z,3.00
2019-02-08T02:04:42.721Z,3.23
2019-02-08T02:07:12.527Z,3.20
2019-02-08T02:09:42.293Z,2.57
2019-02-08T02:12:12.363Z,3.00
2019-02-08T02:14:42.211Z,3.67
2019-02-08T02:17:13.997Z,3.17
2019-02-08T02:19:43.560Z,2.90
2019-02-08T02:22:13.224Z,2.83
2019-02-08T02:24:44.151Z,3.47
2019-02-08T02:27:13.898Z,2.93
2019-02-08T02:29:43.517Z,3.50
2019-02-08T02:32:13.599Z,3.30
2019-02-08T02:34:44.405Z,3.50
2019-02-08T02:37:14.122Z,3.63
2019-02-08T02:39:43.796Z,3.63
2019-02-08T02:42:13.450Z,3.90
2019-02-08T02:44:43.176Z,3.43
2019-02-08T02:47:12.851Z,3.27
2019-02-08T02:49:42.559Z,3.93
2019-02-08T02:52:12.584Z,4.10
2019-02-08T02:54:43.842Z,3.90
2019-02-08T02:57:13.818Z,3.33
2019-02-08T02:59:43.661Z,3.10
2019-02-08T03:02:13.358Z,3.77
2019-02-08T03:04:43.436Z,3.30
2019-02-08T03:07:13.307Z,3.57
2019-02-08T03:09:43.001Z,3.00
2019-02-08T03:12:12.904Z,3.13
2019-02-08T03:14:42.932Z,3.80
2019-02-08T03:17:14.723Z,3.30
2019-02-08T03:19:45.888Z,2.93
2019-02-08T03:22:15.698Z,3.57
2019-02-08T03:24:48.391Z,3.03
2019-02-08T03:27:18.314Z,3.10
2019-02-08T03:29:48.278Z,3.40
2019-02-08T03:32:17.931Z,3.27
2019-02-08T03:34:47.980Z,3.00
2019-02-08T03:37:18.735Z,3.73
2019-02-08T03:39:48.665Z,3.33
2019-02-08T03:42:18.469Z,2.93
2019-02-08T03:44:48.299Z,3.43
2019-02-08T03:47:19.962Z,3.30
2019-02-08T03:49:51.387Z,3.20
2019-02-08T03:52:21.251Z,2.97
2019-02-08T03:54:50.911Z,2.40
2019-02-08T03:57:20.527Z,2.50
2019-02-08T03:59:50.530Z,3.00
2019-02-08T04:02:20.243Z,2.73
2019-02-08T04:04:49.839Z,3.07
2019-02-08T04:07:19.464Z,2.03
2019-02-08T04:09:49.267Z,2.93
2019-02-08T04:12:20.576Z,1.93
2019-02-08T04:14:50.318Z,2.87
2019-02-08T04:17:24.144Z,2.40
2019-02-08T04:19:56.174Z,3.13
2019-02-08T04:22:26.646Z,2.83
2019-02-08T04:24:56.299Z,2.97
2019-02-08T04:27:25.954Z,2.83
2019-02-08T04:29:56.082Z,2.87
2019-02-08T04:32:25.683Z,2.77
2019-02-08T04:34:55.378Z,2.50
2019-02-08T04:37:25.268Z,2.90
2019-02-08T04:39:54.951Z,2.67
2019-02-08T04:42:24.872Z,3.73
2019-02-08T04:44:57.825Z,3.10
2019-02-08T04:47:27.585Z,3.20
2019-02-08T04:49:57.342Z,3.13
2019-02-08T04:52:27.167Z,2.40
2019-02-08T04:54:56.924Z,3.83
2019-02-08T04:57:26.595Z,3.70
2019-02-08T04:59:56.732Z,2.80
2019-02-08T05:02:26.408Z,2.87
2019-02-08T05:04:55.983Z,2.53
2019-02-08T05:07:25.823Z,2.80
2019-02-08T05:09:55.458Z,2.97
2019-02-08T05:12:25.093Z,2.60
2019-02-08T05:14:54.932Z,3.40
2019-02-08T05:17:24.937Z,2.57
2019-02-08T05:19:54.714Z,3.10
2019-02-08T05:22:24.413Z,2.20
2019-02-08T05:24:54.207Z,2.97
2019-02-08T05:27:23.972Z,2.27
2019-02-08T05:29:53.792Z,1.60
2019-02-08T05:32:23.872Z,2.07
2019-02-08T05:34:53.599Z,1.87
2019-02-08T05:37:23.890Z,2.23
2019-02-08T05:39:53.512Z,1.27
2019-02-08T05:42:23.258Z,2.77
2019-02-08T05:44:53.037Z,2.20
2019-02-08T05:47:22.662Z,2.13
2019-02-08T05:49:52.327Z,1.73
2019-02-08T05:52:22.151Z,2.13
2019-02-08T05:54:54.446Z,2.10
2019-02-08T05:57:29.117Z,2.30
2019-02-08T05:59:58.952Z,1.90
2019-02-08T06:02:28.604Z,2.80
2019-02-08T06:04:58.882Z,1.80
2019-02-08T06:07:28.898Z,2.40
2019-02-08T06:09:58.583Z,2.93
2019-02-08T06:12:28.496Z,2.60
2019-02-08T06:14:58.245Z,2.77
2019-02-08T06:17:28.040Z,2.13
2019-02-08T06:19:58.182Z,2.50
2019-02-08T06:22:27.884Z,2.70
2019-02-08T06:25:03.109Z,2.77
2019-02-08T06:27:29.422Z,2.73
2019-02-08T06:29:59.432Z,2.63
2019-02-08T06:32:29.210Z,2.47
2019-02-08T06:34:59.055Z,2.70
2019-02-08T06:37:28.720Z,2.13
2019-02-08T06:39:58.551Z,2.50
2019-02-08T06:42:28.423Z,2.70
2019-02-08T06:44:58.260Z,2.43
2019-02-08T06:47:27.987Z,2.37
2019-02-08T06:49:57.965Z,3.13
2019-02-08T06:52:27.895Z,2.77
2019-02-08T06:54:57.779Z,2.97
2019-02-08T06:57:55.679Z,3.17
2019-02-08T07:00:30.294Z,1.57
2019-02-08T07:03:13.164Z,3.10
2019-02-08T07:06:12.480Z,2.57
2019-02-08T07:09:10.412Z,3.20
2019-02-08T07:12:04.951Z,1.97
2019-02-08T07:15:03.015Z,2.60
2019-02-08T07:17:50.242Z,2.60
2019-02-08T07:20:37.841Z,2.30
2019-02-08T07:23:35.191Z,1.87
2019-02-08T07:26:27.483Z,2.30
2019-02-08T07:29:14.709Z,2.45
2019-02-08T07:32:01.934Z,2.07
2019-02-08T07:34:49.012Z,2.00
2019-02-08T07:37:37.223Z,2.20
2019-02-08T07:40:25.429Z,2.30
2019-02-08T07:43:17.659Z,2.03
2019-02-08T07:46:06.423Z,1.67
2019-02-08T07:49:10.608Z,2.30
2019-02-08T07:52:08.318Z,2.30
2019-02-08T07:54:55.647Z,2.30
2019-02-08T07:57:40.895Z,2.53
2019-02-08T08:00:31.285Z,2.20
2019-02-08T08:03:24.063Z,2.17
2019-02-08T08:06:30.847Z,2.23
2019-02-08T08:09:34.828Z,2.23
2019-02-08T08:12:27.126Z,1.97
2019-02-08T08:15:09.456Z,1.90
2019-02-08T08:17:58.294Z,2.23
2019-02-08T08:20:45.589Z,2.30
2019-02-08T08:23:38.347Z,2.40
2019-02-08T08:26:36.545Z,1.90
2019-02-08T08:29:26.711Z,2.03
2019-02-08T08:32:08.228Z,2.13
2019-02-08T08:35:00.270Z,2.53
2019-02-08T08:38:09.497Z,2.00
2019-02-08T08:41:15.733Z,2.10
2019-02-08T08:44:39.603Z,1.70
2019-02-08T08:47:33.734Z,2.13
2019-02-08T08:50:30.126Z,2.07
2019-02-08T08:53:35.963Z,1.97
2019-02-08T08:56:48.508Z,1.93
2019-02-08T09:00:05.246Z,2.17
2019-02-08T09:03:14.819Z,1.93
2019-02-08T09:06:20.772Z,2.00
2019-02-08T09:09:27.046Z,2.10
2019-02-08T09:12:27.561Z,1.97
2019-02-08T09:15:30.305Z,2.57
2019-02-08T09:18:35.196Z,2.67
2019-02-08T09:21:40.812Z,2.40
2019-02-08T09:24:57.784Z,2.50
2019-02-08T09:27:59.963Z,2.47
2019-02-08T09:31:17.831Z,1.97
2019-02-08T09:34:23.957Z,2.80
2019-02-08T09:37:19.429Z,2.30
2019-02-08T09:40:40.544Z,2.90
2019-02-08T09:44:00.086Z,2.77
2019-02-08T09:47:18.154Z,3.00
2019-02-08T09:50:15.228Z,2.27
2019-02-08T09:53:29.102Z,2.80
2019-02-08T09:56:46.573Z,2.53
2019-02-08T09:59:54.693Z,2.90
2019-02-08T10:03:07.319Z,2.83
2019-02-08T10:06:32.541Z,3.27
2019-02-08T10:09:33.741Z,3.20
2019-02-08T10:12:48.605Z,3.13
2019-02-08T10:16:01.247Z,2.67
2019-02-08T10:19:13.441Z,2.80
2019-02-08T10:22:25.360Z,2.47
2019-02-08T10:25:25.376Z,2.90
2019-02-08T10:28:39.280Z,2.80
2019-02-08T10:32:16.523Z,2.50
2019-02-08T10:35:31.544Z,2.60
2019-02-08T10:39:00.163Z,2.70
2019-02-08T10:42:06.547Z,2.80
2019-02-08T10:45:27.769Z,2.70
2019-02-08T10:48:26.349Z,2.90
2019-02-08T10:51:46.920Z,3.00
2019-02-08T10:55:04.067Z,2.30
2019-02-08T10:58:08.713Z,2.73
2019-02-08T11:01:41.529Z,3.33
2019-02-08T11:04:41.012Z,2.63
2019-02-08T11:07:56.452Z,2.90
2019-02-08T11:11:14.783Z,2.87
2019-02-08T11:14:29.990Z,3.07
2019-02-08T11:17:38.786Z,3.03
2019-02-08T11:20:10.412Z,2.83
2019-02-08T11:22:40.393Z,2.90
2019-02-08T11:25:10.584Z,3.63
2019-02-08T11:27:40.536Z,3.37
2019-02-08T11:30:13.357Z,2.80
2019-02-08T11:32:43.760Z,3.13
2019-02-08T11:35:14.107Z,3.13
2019-02-08T11:37:44.055Z,3.50
2019-02-08T11:40:18.279Z,3.47
2019-02-08T11:42:48.114Z,3.70
2019-02-08T11:45:18.200Z,3.70
2019-02-08T11:47:48.030Z,3.73
2019-02-08T11:50:19.573Z,3.60
2019-02-08T11:52:49.248Z,3.20
2019-02-08T11:55:19.013Z,2.87
2019-02-08T11:57:48.833Z,3.03
2019-02-08T12:00:25.448Z,3.63
2019-02-08T12:02:55.234Z,3.80
2019-02-08T12:05:25.082Z,3.87
2019-02-08T12:07:54.972Z,3.90
2019-02-08T12:10:24.756Z,4.23
2019-02-08T12:12:54.491Z,3.53
2019-02-08T12:15:24.812Z,3.53
2019-02-08T12:17:54.584Z,4.67
2019-02-08T12:20:24.456Z,4.13
2019-02-08T12:22:54.149Z,4.07
2019-02-08T12:25:26.944Z,5.00
2019-02-08T12:27:56.572Z,4.30
2019-02-08T12:30:30.030Z,5.07
2019-02-08T12:32:59.670Z,4.27
2019-02-08T12:35:29.279Z,4.50
2019-02-08T12:37:58.936Z,3.90
2019-02-08T12:40:28.448Z,5.20
2019-02-08T12:42:58.184Z,3.90
2019-02-08T12:45:28.422Z,4.03
2019-02-08T12:47:57.987Z,4.90
2019-02-08T12:50:27.637Z,4.30
2019-02-08T12:52:57.352Z,4.17
2019-02-08T12:55:27.075Z,4.17
2019-02-08T12:57:56.769Z,4.37
2019-02-08T13:00:27.269Z,7.97
2019-02-08T13:02:56.991Z,4.50
2019-02-08T13:05:26.786Z,4.97
2019-02-08T13:07:56.469Z,4.37
2019-02-08T13:10:26.541Z,4.70
2019-02-08T13:12:56.119Z,4.70
2019-02-08T13:15:26.037Z,4.83
2019-02-08T13:17:55.687Z,4.13
2019-02-08T13:20:25.541Z,5.37
2019-02-08T13:22:55.425Z,4.70
2019-02-08T13:25:25.284Z,10.60
2019-02-08T13:27:54.866Z,4.67
2019-02-08T13:30:27.211Z,4.53
2019-02-08T13:32:56.862Z,4.50
2019-02-08T13:35:26.861Z,4.97
2019-02-08T13:37:59.042Z,5.23
2019-02-08T13:40:28.718Z,4.70
2019-02-08T13:42:58.308Z,4.70
2019-02-08T13:45:28.361Z,4.30
2019-02-08T13:47:58.138Z,4.67
2019-02-08T13:50:27.939Z,4.87
2019-02-08T13:52:57.860Z,3.80
2019-02-08T13:55:27.922Z,4.23
2019-02-08T13:57:57.691Z,4.13
2019-02-08T14:00:29.842Z,4.13
2019-02-08T14:03:00.879Z,5.73
2019-02-08T14:05:31.233Z,3.27
2019-02-08T14:08:01.016Z,4.40
2019-02-08T14:10:30.768Z,4.63
2019-02-08T14:13:00.894Z,4.13
2019-02-08T14:15:30.771Z,4.43
2019-02-08T14:18:00.383Z,4.00
2019-02-08T14:20:30.410Z,4.10
2019-02-08T14:23:00.534Z,4.37
2019-02-08T14:25:30.260Z,3.93
2019-02-08T14:28:00.098Z,4.07
2019-02-08T14:30:35.208Z,4.20
2019-02-08T14:33:05.076Z,4.10
2019-02-08T14:35:34.951Z,4.13
2019-02-08T14:38:06.124Z,3.90
2019-02-08T14:40:35.909Z,3.37
2019-02-08T14:43:05.658Z,4.30
2019-02-08T14:45:35.627Z,3.70
2019-02-08T14:48:05.720Z,3.77
2019-02-08T14:50:35.347Z,3.70
2019-02-08T14:53:05.403Z,3.77
2019-02-08T14:55:35.084Z,3.97
2019-02-08T14:58:07.026Z,4.27
2019-02-08T15:00:36.862Z,3.60
2019-02-08T15:03:07.039Z,3.23
2019-02-08T15:05:36.837Z,3.77
2019-02-08T15:08:06.797Z,3.83
2019-02-08T15:10:39.379Z,4.87
2019-02-08T15:13:09.383Z,3.50
2019-02-08T15:15:39.109Z,4.40
2019-02-08T15:18:08.996Z,4.93
2019-02-08T15:20:39.114Z,4.70
2019-02-08T15:23:09.011Z,5.63
2019-02-08T15:25:38.928Z,4.67
2019-02-08T15:28:08.768Z,5.37
2019-02-08T15:30:38.979Z,4.60
2019-02-08T15:33:09.235Z,5.20
2019-02-08T15:35:38.998Z,5.00
2019-02-08T15:38:08.961Z,4.70
2019-02-08T15:40:41.870Z,5.13
2019-02-08T15:43:12.442Z,5.07
2019-02-08T15:45:43.620Z,4.67
2019-02-08T15:48:13.753Z,5.23
2019-02-08T15:50:43.511Z,5.83
2019-02-08T15:53:13.300Z,6.00
2019-02-08T15:55:44.513Z,5.93
2019-02-08T15:58:14.412Z,6.23
2019-02-08T16:00:44.396Z,6.93
2019-02-08T16:03:14.284Z,6.47
2019-02-08T16:05:44.310Z,7.00
2019-02-08T16:08:13.960Z,7.07
2019-02-08T16:10:43.718Z,7.90
2019-02-08T16:13:13.586Z,8.13
2019-02-08T16:15:43.875Z,12.07
2019-02-08T16:18:14.175Z,9.03
2019-02-08T16:20:43.988Z,9.97
2019-02-08T16:23:13.940Z,10.37
2019-02-08T16:25:44.072Z,10.73
2019-02-08T16:28:13.770Z,12.07
2019-02-08T16:30:43.977Z,12.40
2019-02-08T16:33:14.025Z,13.13
2019-02-08T16:35:43.636Z,13.63
2019-02-08T16:38:13.208Z,14.27
2019-02-08T16:40:43.171Z,13.57
2019-02-08T16:43:12.767Z,13.13
2019-02-08T16:45:43.223Z,13.77
2019-02-08T16:48:12.972Z,12.67
2019-02-08T16:50:43.051Z,13.67
2019-02-08T16:53:13.494Z,12.60
2019-02-08T16:55:43.048Z,12.13
2019-02-08T16:58:12.925Z,12.13
2019-02-08T17:00:43.271Z,13.00
2019-02-08T17:03:13.594Z,12.30
2019-02-08T17:05:43.230Z,12.80
2019-02-08T17:08:13.260Z,13.93
2019-02-08T17:10:42.973Z,13.60
2019-02-08T17:13:12.599Z,13.40
2019-02-08T17:15:42.906Z,13.47
2019-02-08T17:18:12.657Z,12.50
2019-02-08T17:20:45.648Z,13.07
2019-02-08T17:23:15.430Z,12.53
2019-02-08T17:25:45.540Z,11.30
2019-02-08T17:28:15.642Z,12.30
2019-02-08T17:30:45.181Z,11.47
2019-02-08T17:33:14.851Z,11.90
2019-02-08T17:35:44.778Z,11.87
2019-02-08T17:38:14.491Z,11.27
2019-02-08T17:40:47.954Z,10.47
2019-02-08T17:43:17.548Z,11.30
2019-02-08T17:45:47.301Z,10.37
2019-02-08T17:48:17.325Z,10.57
2019-02-08T17:50:47.212Z,11.27
2019-02-08T17:53:16.899Z,11.13
2019-02-08T17:55:48.362Z,11.53
2019-02-08T17:58:18.204Z,11.00
2019-02-08T18:00:55.783Z,11.93
2019-02-08T18:03:25.595Z,11.33
2019-02-08T18:05:55.529Z,11.43
2019-02-08T18:08:25.372Z,12.07
2019-02-08T18:10:57.536Z,11.73
2019-02-08T18:13:27.555Z,12.57
2019-02-08T18:15:57.246Z,11.80
2019-02-08T18:18:27.457Z,12.00
2019-02-08T18:21:00.222Z,12.57
2019-02-08T18:23:29.817Z,12.87
2019-02-08T18:25:59.529Z,13.20
2019-02-08T18:28:29.296Z,13.53
2019-02-08T18:30:58.888Z,14.40
2019-02-08T18:33:28.615Z,14.03
2019-02-08T18:35:58.491Z,13.10
2019-02-08T18:38:28.285Z,14.73
2019-02-08T18:40:58.092Z,13.80
2019-02-08T18:43:27.940Z,13.70
2019-02-08T18:45:57.535Z,12.97
2019-02-08T18:48:27.192Z,12.37
2019-02-08T18:50:57.063Z,13.57
2019-02-08T18:53:26.719Z,12.73
2019-02-08T18:55:56.411Z,12.50
2019-02-08T18:58:26.170Z,12.07
2019-02-08T19:00:55.919Z,11.53
2019-02-08T19:03:25.734Z,12.67
2019-02-08T19:05:55.609Z,11.90
2019-02-08T19:08:25.251Z,11.90
2019-02-08T19:10:55.143Z,12.40
2019-02-08T19:13:25.773Z,13.23
2019-02-08T19:15:55.470Z,12.23
2019-02-08T19:18:25.167Z,12.43
2019-02-08T19:20:55.207Z,12.00
2019-02-08T19:23:25.078Z,12.10
2019-02-08T19:25:54.946Z,11.90
2019-02-08T19:28:26.612Z,12.97
2019-02-08T19:30:56.065Z,12.57
2019-02-08T19:33:26.042Z,13.07
2019-02-08T19:35:55.621Z,13.53
2019-02-08T19:38:26.128Z,12.70
2019-02-08T19:40:55.982Z,13.73
2019-02-08T19:43:25.922Z,13.70
2019-02-08T19:45:55.790Z,12.37
2019-02-08T19:48:25.639Z,12.00
2019-02-08T19:50:55.587Z,11.57
2019-02-08T19:53:25.560Z,11.93
2019-02-08T19:55:55.676Z,12.67
2019-02-08T19:58:25.390Z,12.13
2019-02-08T20:00:55.482Z,12.93
2019-02-08T20:03:25.551Z,12.87
2019-02-08T20:05:55.452Z,12.80
2019-02-08T20:08:25.322Z,13.23
2019-02-08T20:10:55.326Z,15.17
2019-02-08T20:13:24.862Z,14.67
2019-02-08T20:15:54.791Z,14.87
2019-02-08T20:18:24.619Z,15.70
2019-02-08T20:20:54.847Z,14.43
2019-02-08T20:23:24.609Z,13.73
2019-02-08T20:25:54.517Z,13.87
2019-02-08T20:28:24.833Z,13.60
2019-02-08T20:30:55.116Z,14.60
2019-02-08T20:33:25.659Z,16.00
2019-02-08T20:35:55.493Z,14.63
2019-02-08T20:38:25.563Z,12.80
2019-02-08T20:40:55.533Z,22.67
2019-02-08T20:43:26.030Z,15.73
2019-02-08T20:45:55.749Z,9.93
2019-02-08T20:48:25.441Z,13.23
2019-02-08T20:50:55.552Z,11.70
2019-02-08T20:53:25.454Z,14.23
2019-02-08T20:55:55.431Z,15.83
2019-02-08T20:58:25.288Z,11.27
2019-02-08T21:00:55.310Z,14.17
2019-02-08T21:03:25.519Z,13.90
2019-02-08T21:05:55.760Z,13.07
2019-02-08T21:08:25.494Z,13.47
2019-02-08T21:10:55.347Z,11.83
2019-02-08T21:13:29.870Z,8.67
2019-02-08T21:15:59.668Z,11.10
2019-02-08T21:18:29.641Z,14.70
2019-02-08T21:20:59.688Z,13.23
2019-02-08T21:23:29.623Z,11.23
2019-02-08T21:25:59.398Z,10.37
2019-02-08T21:28:29.172Z,14.90
2019-02-08T21:30:58.890Z,6.77
2019-02-08T21:33:28.672Z,11.30
2019-02-08T21:35:58.644Z,9.60
2019-02-08T21:38:28.306Z,11.97
2019-02-08T21:40:58.186Z,11.03
2019-02-08T21:43:29.799Z,5.60
2019-02-08T21:45:59.862Z,10.07
2019-02-08T21:48:29.568Z,9.23
2019-02-08T21:50:59.366Z,8.30
2019-02-08T21:53:29.229Z,10.20
2019-02-08T21:55:58.942Z,8.53
2019-02-08T21:58:28.542Z,9.53
2019-02-08T22:01:01.541Z,10.43
2019-02-08T22:03:31.310Z,10.97
2019-02-08T22:06:04.416Z,11.47
2019-02-08T22:08:34.182Z,11.03
2019-02-08T22:11:03.936Z,12.10
2019-02-08T22:13:34.075Z,11.83
2019-02-08T22:16:04.157Z,12.13
2019-02-08T22:18:33.834Z,11.27
2019-02-08T22:21:03.994Z,9.57
2019-02-08T22:23:33.722Z,8.80
2019-02-08T22:26:03.461Z,8.57
2019-02-08T22:28:33.452Z,11.17
2019-02-08T22:31:03.158Z,11.47
2019-02-08T22:33:32.775Z,9.10
2019-02-08T22:36:04.032Z,11.43
2019-02-08T22:38:33.597Z,10.97
2019-02-08T22:41:03.169Z,9.80
2019-02-08T22:43:34.192Z,10.23
2019-02-08T22:46:03.929Z,8.50
2019-02-08T22:48:33.586Z,9.97
2019-02-08T22:51:03.479Z,6.83
2019-02-08T22:53:33.149Z,10.90
2019-02-08T22:56:02.852Z,11.27
2019-02-08T22:58:32.735Z,11.23
2019-02-08T23:01:27.332Z,11.47
2019-02-08T23:03:58.294Z,10.07
2019-02-08T23:06:28.335Z,13.60
2019-02-08T23:08:58.961Z,11.30
2019-02-08T23:11:29.552Z,8.40
2019-02-08T23:13:59.307Z,10.80
2019-02-08T23:16:29.236Z,10.50
2019-02-08T23:18:59.270Z,11.80
2019-02-08T23:21:29.229Z,11.80
2019-02-08T23:23:59.053Z,10.13
2019-02-08T23:26:28.695Z,9.60
2019-02-08T23:28:58.520Z,8.27
2019-02-08T23:31:28.574Z,8.20
2019-02-08T23:33:58.277Z,9.00
2019-02-08T23:36:28.040Z,7.87
2019-02-08T23:38:58.049Z,7.30
2019-02-08T23:41:27.771Z,8.30
2019-02-08T23:43:57.394Z,6.70
2019-02-08T23:46:27.174Z,8.37
2019-02-08T23:48:56.960Z,8.83
2019-02-08T23:51:26.636Z,8.43
2019-02-08T23:53:56.897Z,9.00
2019-02-08T23:56:26.727Z,9.37
2019-02-08T23:58:56.468Z,6.53
